Time;durP1;ratioP1;P1;durP2;ratioP2;P2;SDS_P1;SDS_P2;PMS_P1;PMS_P2;Temp;Humidity;BMP_temperature;BMP_pressure;BME280_temperature;BME280_humidity;BME280_pressure;Samples;Min_cycle;Max_cycle;Signal;HPM_P1;HPM_P2
2021/05/12 00:00:27;;;;;;;2.90;1.70;;;;;;;;;;4991305;28;20493;-59
2021/05/12 00:02:53;;;;;;;4.57;2.03;;;;;;;;;;4991183;28;20077;-58
2021/05/12 00:05:21;;;;;;;3.65;1.98;;;;;;;;;;4992809;28;20026;-59
2021/05/12 00:07:47;;;;;;;2.50;1.80;;;;;;;;;;4991532;28;20069;-59
2021/05/12 00:10:14;;;;;;;2.00;1.50;;;;;;;;;;4993175;28;20022;-59
2021/05/12 00:12:40;;;;;;;1.85;1.55;;;;;;;;;;4993329;28;20046;-59
2021/05/12 00:15:08;;;;;;;2.55;1.80;;;;;;;;;;4991243;28;20026;-58
2021/05/12 00:17:37;;;;;;;2.22;1.63;;;;;;;;;;4991724;28;20449;-58
2021/05/12 00:20:04;;;;;;;3.42;1.95;;;;;;;;;;4990219;28;20037;-58
2021/05/12 00:24:56;;;;;;;2.85;2.03;;;;;;;;;;4982150;28;20041;-58
2021/05/12 00:27:22;;;;;;;3.58;2.00;;;;;;;;;;4993116;28;20027;-59
2021/05/12 00:29:49;;;;;;;3.83;1.83;;;;;;;;;;4992508;28;20161;-59
2021/05/12 00:32:15;;;;;;;4.18;2.22;;;;;;;;;;4990532;28;20481;-58
2021/05/12 00:34:41;;;;;;;3.35;2.25;;;;;;;;;;4991581;28;20081;-59
2021/05/12 00:37:07;;;;;;;3.75;2.08;;;;;;;;;;4991940;28;20046;-59
2021/05/12 00:39:33;;;;;;;3.00;1.98;;;;;;;;;;4991402;28;20117;-58
2021/05/12 00:42:00;;;;;;;4.88;2.03;;;;;;;;;;4992507;28;20189;-59
2021/05/12 00:44:26;;;;;;;3.15;2.60;;;;;;;;;;4993045;28;20022;-58
2021/05/12 00:46:53;;;;;;;2.72;2.05;;;;;;;;;;4991154;28;20046;-58
2021/05/12 00:49:23;;;;;;;5.22;2.20;;;;;;;;;;4992834;28;20025;-59
2021/05/12 00:51:49;;;;;;;2.80;2.15;;;;;;;;;;5002738;28;20025;-58
2021/05/12 00:54:15;;;;;;;6.13;3.10;;;;;;;;;;4992780;28;20432;-58
2021/05/12 00:56:42;;;;;;;4.00;2.90;;;;;;;;;;4992746;28;20113;-58
2021/05/12 00:59:09;;;;;;;6.30;2.90;;;;;;;;;;4992693;28;20032;-58
2021/05/12 01:01:36;;;;;;;4.28;2.83;;;;;;;;;;4987619;28;20110;-59
2021/05/12 01:04:02;;;;;;;3.38;2.58;;;;;;;;;;4987284;28;20030;-59
2021/05/12 01:06:30;;;;;;;4.78;2.60;;;;;;;;;;4987646;28;20026;-57
2021/05/12 01:08:56;;;;;;;3.35;2.60;;;;;;;;;;5003616;28;20092;-57
2021/05/12 01:11:23;;;;;;;2.92;2.28;;;;;;;;;;4992388;28;20019;-58
2021/05/12 01:13:50;;;;;;;2.80;2.30;;;;;;;;;;4990875;28;20134;-58
2021/05/12 01:16:19;;;;;;;3.05;2.03;;;;;;;;;;4991592;28;20312;-58
2021/05/12 01:18:46;;;;;;;4.53;2.17;;;;;;;;;;4991340;28;20041;-58
2021/05/12 01:21:12;;;;;;;5.47;2.55;;;;;;;;;;4989936;28;20474;-58
2021/05/12 01:23:40;;;;;;;3.13;2.10;;;;;;;;;;4988464;28;20057;-58
2021/05/12 01:26:09;;;;;;;2.75;1.98;;;;;;;;;;4991129;28;20037;-58
2021/05/12 01:28:37;;;;;;;3.63;2.38;;;;;;;;;;4991528;28;20033;-58
2021/05/12 01:31:11;;;;;;;2.92;1.83;;;;;;;;;;4992275;28;20105;-58
2021/05/12 01:33:38;;;;;;;2.15;1.60;;;;;;;;;;4990744;28;20027;-58
2021/05/12 01:36:05;;;;;;;3.55;1.83;;;;;;;;;;4991162;28;20027;-58
2021/05/12 01:38:31;;;;;;;4.05;1.95;;;;;;;;;;4990096;28;20050;-58
2021/05/12 01:40:58;;;;;;;3.17;2.22;;;;;;;;;;4993855;28;20085;-58
2021/05/12 01:43:24;;;;;;;4.38;2.17;;;;;;;;;;4995392;28;20023;-58
2021/05/12 01:45:52;;;;;;;3.97;2.10;;;;;;;;;;4994925;28;20058;-59
2021/05/12 01:48:18;;;;;;;2.88;2.22;;;;;;;;;;4995151;28;20094;-58
2021/05/12 01:50:45;;;;;;;3.63;1.90;;;;;;;;;;4995334;28;20037;-58
2021/05/12 01:53:11;;;;;;;3.20;2.28;;;;;;;;;;4995008;28;20516;-58
2021/05/12 01:55:38;;;;;;;2.63;2.00;;;;;;;;;;4985019;28;20486;-58
2021/05/12 01:58:04;;;;;;;4.90;2.67;;;;;;;;;;4992117;28;20138;-58
2021/05/12 02:00:33;;;;;;;3.67;2.33;;;;;;;;;;4993755;28;20405;-59
2021/05/12 02:02:59;;;;;;;5.18;2.90;;;;;;;;;;4993000;28;20042;-60
2021/05/12 02:05:27;;;;;;;4.70;2.90;;;;;;;;;;4993944;28;20022;-59
2021/05/12 02:07:54;;;;;;;4.72;3.63;;;;;;;;;;4989490;28;20041;-59
2021/05/12 02:10:20;;;;;;;4.45;4.05;;;;;;;;;;4994303;28;20516;-58
2021/05/12 02:12:47;;;;;;;4.15;3.50;;;;;;;;;;4994431;28;20015;-58
2021/05/12 02:15:13;;;;;;;6.88;4.50;;;;;;;;;;4989512;28;20034;-58
2021/05/12 02:17:40;;;;;;;5.30;4.45;;;;;;;;;;4994396;28;20438;-58
2021/05/12 02:20:07;;;;;;;10.95;4.57;;;;;;;;;;4995154;28;20033;-59
2021/05/12 02:22:33;;;;;;;5.97;4.72;;;;;;;;;;4994353;28;20025;-59
2021/05/12 02:25:00;;;;;;;5.28;3.80;;;;;;;;;;4994332;28;20033;-58
2021/05/12 02:27:26;;;;;;;6.25;4.28;;;;;;;;;;4994599;28;20023;-59
2021/05/12 02:29:52;;;;;;;5.47;4.18;;;;;;;;;;4981074;28;20073;-59
2021/05/12 02:32:18;;;;;;;6.78;4.82;;;;;;;;;;4992971;28;20365;-59
2021/05/12 02:34:44;;;;;;;4.35;3.90;;;;;;;;;;4995010;28;20097;-59
2021/05/12 02:37:11;;;;;;;5.22;3.92;;;;;;;;;;4993554;28;20034;-58
2021/05/12 02:39:37;;;;;;;5.82;3.65;;;;;;;;;;4994570;28;20081;-59
2021/05/12 02:42:03;;;;;;;4.18;3.63;;;;;;;;;;4994492;28;20147;-59
2021/05/12 02:44:29;;;;;;;3.90;3.30;;;;;;;;;;4993915;28;20038;-59
2021/05/12 02:46:56;;;;;;;4.97;3.65;;;;;;;;;;4994268;28;20053;-59
2021/05/12 02:49:22;;;;;;;4.88;3.70;;;;;;;;;;4994371;28;20485;-59
2021/05/12 02:51:48;;;;;;;4.75;3.47;;;;;;;;;;4993958;28;20053;-58
2021/05/12 02:54:15;;;;;;;7.57;3.70;;;;;;;;;;4993532;28;20019;-59
2021/05/12 02:56:41;;;;;;;5.55;3.50;;;;;;;;;;4994142;28;20066;-57
2021/05/12 02:59:07;;;;;;;5.60;3.38;;;;;;;;;;4993876;28;20037;-58
2021/05/12 03:01:33;;;;;;;7.95;3.72;;;;;;;;;;4993949;28;20101;-59
2021/05/12 03:03:59;;;;;;;5.22;3.45;;;;;;;;;;4993809;28;20454;-58
2021/05/12 03:06:26;;;;;;;5.45;3.72;;;;;;;;;;4994154;28;20076;-58
2021/05/12 03:08:52;;;;;;;3.50;3.20;;;;;;;;;;4993827;28;20604;-58
2021/05/12 03:11:18;;;;;;;4.05;3.22;;;;;;;;;;4994338;28;20026;-58
2021/05/12 03:13:44;;;;;;;4.18;3.20;;;;;;;;;;4993647;28;20018;-59
2021/05/12 03:16:10;;;;;;;3.85;2.70;;;;;;;;;;4993410;28;20427;-58
2021/05/12 03:18:37;;;;;;;4.78;3.28;;;;;;;;;;4993071;28;20022;-58
2021/05/12 03:21:03;;;;;;;4.30;3.38;;;;;;;;;;4993524;28;20062;-58
2021/05/12 03:23:30;;;;;;;6.00;4.03;;;;;;;;;;4975559;28;20118;-58
2021/05/12 03:25:56;;;;;;;5.45;2.65;;;;;;;;;;4992160;28;20037;-58
2021/05/12 03:28:22;;;;;;;3.30;2.60;;;;;;;;;;4993613;28;20057;-58
2021/05/12 03:30:48;;;;;;;3.95;2.90;;;;;;;;;;4993704;28;20026;-58
2021/05/12 03:33:15;;;;;;;3.45;3.15;;;;;;;;;;4993322;28;20077;-59
2021/05/12 03:35:42;;;;;;;4.43;3.00;;;;;;;;;;4992939;28;20358;-58
2021/05/12 03:38:09;;;;;;;4.13;3.35;;;;;;;;;;4992288;28;20049;-59
2021/05/12 03:40:35;;;;;;;3.90;3.05;;;;;;;;;;4991724;28;20034;-59
2021/05/12 03:43:01;;;;;;;3.63;3.10;;;;;;;;;;4993171;28;20136;-58
2021/05/12 03:45:28;;;;;;;6.53;3.20;;;;;;;;;;4993110;28;20489;-59
2021/05/12 03:47:55;;;;;;;6.20;3.15;;;;;;;;;;4993073;28;20366;-59
2021/05/12 03:50:23;;;;;;;5.93;2.83;;;;;;;;;;4992997;28;20030;-58
2021/05/12 03:52:49;;;;;;;3.38;2.95;;;;;;;;;;4991062;28;20053;-57
2021/05/12 03:55:16;;;;;;;3.55;2.90;;;;;;;;;;4993057;28;20028;-58
2021/05/12 03:57:42;;;;;;;3.75;3.08;;;;;;;;;;4993003;28;20037;-57
2021/05/12 04:00:09;;;;;;;3.85;3.08;;;;;;;;;;4992818;28;20026;-58
2021/05/12 04:02:35;;;;;;;3.78;2.88;;;;;;;;;;4993019;28;20038;-57
2021/05/12 04:05:01;;;;;;;3.53;3.13;;;;;;;;;;4991527;28;20034;-58
2021/05/12 04:07:28;;;;;;;4.13;3.42;;;;;;;;;;4993164;28;20026;-58
2021/05/12 04:09:54;;;;;;;5.88;3.20;;;;;;;;;;4992357;28;20575;-58
2021/05/12 04:12:21;;;;;;;5.07;3.30;;;;;;;;;;4991868;28;20448;-57
2021/05/12 04:14:47;;;;;;;5.20;3.47;;;;;;;;;;4985116;28;20116;-58
2021/05/12 04:17:13;;;;;;;8.27;3.63;;;;;;;;;;4984622;28;20039;-58
2021/05/12 04:19:40;;;;;;;5.50;3.83;;;;;;;;;;4985993;28;20022;-58
2021/05/12 04:22:06;;;;;;;4.38;3.50;;;;;;;;;;4988607;28;20032;-58
2021/05/12 04:24:32;;;;;;;5.18;3.10;;;;;;;;;;4988324;28;20137;-59
2021/05/12 04:26:58;;;;;;;5.07;3.75;;;;;;;;;;4982714;28;20022;-58
2021/05/12 04:29:24;;;;;;;5.72;3.95;;;;;;;;;;4982049;28;20446;-58
2021/05/12 04:31:51;;;;;;;7.63;5.00;;;;;;;;;;4991252;28;20026;-58
2021/05/12 04:34:17;;;;;;;6.40;4.85;;;;;;;;;;4990900;28;20026;-58
2021/05/12 04:36:43;;;;;;;5.38;4.88;;;;;;;;;;4986447;28;20069;-59
2021/05/12 04:39:09;;;;;;;7.40;5.85;;;;;;;;;;4978955;28;20561;-58
2021/05/12 04:41:36;;;;;;;8.02;6.18;;;;;;;;;;4989940;28;20086;-58
2021/05/12 04:44:03;;;;;;;7.75;6.28;;;;;;;;;;4981701;28;20046;-59
2021/05/12 04:46:29;;;;;;;14.10;8.00;;;;;;;;;;4989871;28;20041;-58
2021/05/12 04:48:55;;;;;;;10.40;8.68;;;;;;;;;;4986138;28;20026;-58
2021/05/12 04:51:22;;;;;;;12.30;8.23;;;;;;;;;;4988187;28;20495;-58
2021/05/12 04:53:48;;;;;;;13.55;8.63;;;;;;;;;;4989100;28;20565;-58
2021/05/12 04:56:15;;;;;;;11.93;8.60;;;;;;;;;;4981564;28;20023;-59
2021/05/12 04:58:42;;;;;;;9.88;8.50;;;;;;;;;;4990860;28;20034;-59
2021/05/12 05:01:08;;;;;;;10.77;8.63;;;;;;;;;;4987203;28;20018;-59
2021/05/12 05:03:40;;;;;;;12.82;8.38;;;;;;;;;;4989161;28;20122;-59
2021/05/12 05:06:07;;;;;;;10.95;8.02;;;;;;;;;;4990100;28;20026;-59
2021/05/12 05:08:33;;;;;;;16.05;10.10;;;;;;;;;;4988531;28;20030;-57
2021/05/12 05:10:59;;;;;;;10.57;9.05;;;;;;;;;;4987865;28;20069;-58
2021/05/12 05:13:25;;;;;;;13.25;9.55;;;;;;;;;;4989673;28;20362;-59
2021/05/12 05:15:51;;;;;;;12.13;9.15;;;;;;;;;;4991484;28;20019;-58
2021/05/12 05:18:18;;;;;;;15.15;9.55;;;;;;;;;;4992210;28;20035;-58
2021/05/12 05:20:44;;;;;;;11.43;9.95;;;;;;;;;;4992914;28;20540;-58
2021/05/12 05:23:10;;;;;;;13.60;10.15;;;;;;;;;;4995321;28;20045;-58
2021/05/12 05:25:37;;;;;;;12.77;10.25;;;;;;;;;;4996353;28;20019;-58
2021/05/12 05:28:03;;;;;;;16.05;11.75;;;;;;;;;;4993819;28;20086;-59
2021/05/12 05:30:29;;;;;;;13.63;10.60;;;;;;;;;;4995283;28;20022;-58
2021/05/12 05:32:59;;;;;;;15.98;11.00;;;;;;;;;;4992077;28;20117;-58
2021/05/12 05:35:25;;;;;;;12.80;10.98;;;;;;;;;;4995350;28;20141;-59
2021/05/12 05:37:51;;;;;;;14.27;10.98;;;;;;;;;;4995497;28;20026;-58
2021/05/12 05:40:18;;;;;;;15.52;10.07;;;;;;;;;;4995325;28;20113;-58
2021/05/12 05:42:44;;;;;;;13.40;9.38;;;;;;;;;;4995530;28;20053;-58
2021/05/12 05:45:10;;;;;;;15.02;10.10;;;;;;;;;;4994596;28;20030;-59
2021/05/12 05:47:36;;;;;;;13.73;10.13;;;;;;;;;;4995084;28;20027;-59
2021/05/12 05:50:03;;;;;;;11.60;9.98;;;;;;;;;;4995168;28;20042;-58
2021/05/12 05:52:29;;;;;;;11.68;8.88;;;;;;;;;;4995398;28;20031;-58
2021/05/12 05:54:55;;;;;;;13.07;10.02;;;;;;;;;;4989838;28;20486;-58
2021/05/12 05:57:22;;;;;;;13.35;9.52;;;;;;;;;;4999270;28;20424;-58
2021/05/12 05:59:48;;;;;;;13.43;9.40;;;;;;;;;;4995683;28;20034;-58
2021/05/12 06:02:14;;;;;;;11.63;9.68;;;;;;;;;;4993525;28;20390;-58
2021/05/12 06:04:40;;;;;;;12.63;9.40;;;;;;;;;;4994685;28;20026;-59
2021/05/12 06:07:07;;;;;;;13.30;9.63;;;;;;;;;;4993237;28;20117;-59
2021/05/12 06:09:34;;;;;;;10.98;8.43;;;;;;;;;;4995170;28;20034;-58
2021/05/12 06:12:00;;;;;;;10.45;9.07;;;;;;;;;;4975785;28;20019;-57
2021/05/12 06:14:26;;;;;;;10.82;9.45;;;;;;;;;;4989566;28;20049;-58
2021/05/12 06:16:52;;;;;;;11.18;9.45;;;;;;;;;;4994901;28;20022;-58
2021/05/12 06:19:18;;;;;;;10.82;8.48;;;;;;;;;;4994819;28;20042;-57
2021/05/12 06:21:45;;;;;;;12.98;9.40;;;;;;;;;;4987851;28;20027;-58
2021/05/12 06:24:11;;;;;;;9.90;8.40;;;;;;;;;;4994080;28;20034;-58
2021/05/12 06:26:39;;;;;;;10.63;9.50;;;;;;;;;;4993086;28;20109;-58
2021/05/12 06:29:05;;;;;;;12.60;10.07;;;;;;;;;;4993754;28;20200;-60
2021/05/12 06:31:31;;;;;;;14.00;10.80;;;;;;;;;;4993739;28;20022;-58
2021/05/12 06:33:59;;;;;;;14.05;10.70;;;;;;;;;;4994855;28;20050;-58
2021/05/12 06:36:26;;;;;;;10.85;9.45;;;;;;;;;;4993838;28;20034;-57
2021/05/12 06:38:52;;;;;;;9.90;8.90;;;;;;;;;;4993030;28;20389;-58
2021/05/12 06:41:18;;;;;;;13.98;9.35;;;;;;;;;;4992386;28;20346;-57
2021/05/12 06:43:44;;;;;;;10.50;9.05;;;;;;;;;;4994668;28;20022;-58
2021/05/12 06:46:11;;;;;;;9.73;8.73;;;;;;;;;;4993575;28;20042;-58
2021/05/12 06:48:37;;;;;;;9.70;8.68;;;;;;;;;;4981517;28;20105;-59
2021/05/12 06:51:03;;;;;;;12.05;9.68;;;;;;;;;;4993645;28;20034;-57
2021/05/12 06:53:33;;;;;;;10.38;8.63;;;;;;;;;;4991293;28;20034;-58
2021/05/12 06:56:00;;;;;;;9.38;8.32;;;;;;;;;;4988919;28;20062;-58
2021/05/12 06:58:26;;;;;;;10.57;8.85;;;;;;;;;;4979787;28;20628;-57
2021/05/12 07:00:53;;;;;;;10.55;8.40;;;;;;;;;;4993307;28;20170;-58
2021/05/12 07:03:22;;;;;;;10.50;8.85;;;;;;;;;;4986721;28;20046;-59
2021/05/12 07:05:48;;;;;;;9.77;8.45;;;;;;;;;;4990454;28;20029;-59
2021/05/12 07:08:15;;;;;;;9.32;8.13;;;;;;;;;;4979863;28;20026;-59
2021/05/12 07:10:41;;;;;;;10.73;8.95;;;;;;;;;;4992207;28;20019;-59
2021/05/12 07:13:07;;;;;;;10.65;9.10;;;;;;;;;;4988865;28;20589;-59
2021/05/12 07:15:39;;;;;;;10.43;9.30;;;;;;;;;;4992912;28;20245;-58
2021/05/12 07:18:05;;;;;;;12.13;8.10;;;;;;;;;;4992609;28;20034;-58
2021/05/12 07:20:32;;;;;;;10.07;8.30;;;;;;;;;;4986334;28;20038;-58
2021/05/12 07:23:05;;;;;;;10.13;9.13;;;;;;;;;;4973576;28;20019;-59
2021/05/12 07:25:31;;;;;;;8.80;7.85;;;;;;;;;;4986396;28;20491;-59
2021/05/12 07:27:57;;;;;;;10.15;8.32;;;;;;;;;;4987870;28;20096;-57
2021/05/12 07:30:24;;;;;;;10.57;7.93;;;;;;;;;;4990202;28;20117;-59
2021/05/12 07:32:51;;;;;;;9.52;8.10;;;;;;;;;;4988866;28;20081;-59
2021/05/12 07:35:17;;;;;;;9.77;7.85;;;;;;;;;;4976302;28;20042;-59
2021/05/12 07:37:43;;;;;;;8.05;7.20;;;;;;;;;;4982506;28;20042;-60
2021/05/12 07:40:10;;;;;;;10.40;8.20;;;;;;;;;;4985889;28;20422;-58
2021/05/12 07:42:39;;;;;;;14.60;7.50;;;;;;;;;;4985707;28;20057;-59
2021/05/12 07:45:06;;;;;;;10.05;8.05;;;;;;;;;;4990531;28;20543;-59
2021/05/12 07:47:33;;;;;;;10.82;8.25;;;;;;;;;;4984260;28;20035;-58
2021/05/12 07:49:59;;;;;;;8.85;7.95;;;;;;;;;;4987247;28;20129;-58
2021/05/12 07:52:25;;;;;;;11.20;8.18;;;;;;;;;;4986062;28;20037;-58
2021/05/12 07:54:53;;;;;;;9.77;8.77;;;;;;;;;;4990853;28;20027;-58
2021/05/12 07:57:19;;;;;;;9.25;8.32;;;;;;;;;;4987656;28;20588;-58
2021/05/12 07:59:45;;;;;;;7.68;6.85;;;;;;;;;;4989552;28;20022;-58
2021/05/12 08:02:11;;;;;;;8.95;7.55;;;;;;;;;;4987501;28;20081;-58
2021/05/12 08:04:38;;;;;;;8.70;7.65;;;;;;;;;;4985457;28;20065;-58
2021/05/12 08:07:04;;;;;;;8.85;7.85;;;;;;;;;;4981716;28;20078;-58
2021/05/12 08:09:31;;;;;;;19.88;8.75;;;;;;;;;;4979451;28;20026;-58
2021/05/12 08:11:57;;;;;;;8.93;7.95;;;;;;;;;;4987426;28;20030;-59
2021/05/12 08:14:23;;;;;;;9.45;7.78;;;;;;;;;;4981870;28;21660;-59
2021/05/12 08:16:49;;;;;;;8.13;6.55;;;;;;;;;;4986920;28;20508;-58
2021/05/12 08:19:15;;;;;;;8.02;6.40;;;;;;;;;;4985866;28;20031;-58
2021/05/12 08:21:42;;;;;;;6.55;5.85;;;;;;;;;;4980519;28;20830;-58
2021/05/12 08:24:08;;;;;;;7.07;6.47;;;;;;;;;;4989428;28;20106;-59
2021/05/12 08:26:35;;;;;;;8.45;7.57;;;;;;;;;;4987795;28;20347;-59
2021/05/12 08:29:03;;;;;;;9.05;8.15;;;;;;;;;;4983304;28;20023;-58
2021/05/12 08:31:30;;;;;;;9.82;8.82;;;;;;;;;;4980146;28;20034;-59
2021/05/12 08:33:57;;;;;;;9.38;8.35;;;;;;;;;;4988957;28;20185;-59
2021/05/12 08:36:23;;;;;;;9.52;8.63;;;;;;;;;;4991997;28;20493;-59
2021/05/12 08:38:50;;;;;;;8.75;7.68;;;;;;;;;;4991168;28;20149;-59
2021/05/12 08:41:17;;;;;;;9.20;8.02;;;;;;;;;;4990669;28;20086;-59
2021/05/12 08:43:44;;;;;;;10.25;8.50;;;;;;;;;;4985666;28;20041;-59
2021/05/12 08:46:11;;;;;;;11.30;9.15;;;;;;;;;;4989414;28;20088;-59
2021/05/12 08:48:38;;;;;;;9.10;8.20;;;;;;;;;;4979229;28;20489;-59
2021/05/12 08:51:06;;;;;;;8.63;7.82;;;;;;;;;;4988387;28;20211;-59
2021/05/12 08:53:32;;;;;;;9.77;8.63;;;;;;;;;;4989996;28;20073;-59
2021/05/12 08:56:00;;;;;;;9.85;8.85;;;;;;;;;;4974935;28;20027;-59
2021/05/12 08:58:27;;;;;;;10.20;8.40;;;;;;;;;;4983187;28;20031;-59
2021/05/12 09:00:54;;;;;;;7.75;7.00;;;;;;;;;;4989633;28;20037;-59
2021/05/12 09:03:20;;;;;;;9.13;7.55;;;;;;;;;;4983947;28;20030;-60
2021/05/12 09:05:47;;;;;;;7.72;6.45;;;;;;;;;;4990028;28;20027;-58
2021/05/12 09:08:13;;;;;;;12.25;6.32;;;;;;;;;;4987237;28;20113;-59
2021/05/12 09:10:39;;;;;;;7.72;6.95;;;;;;;;;;4999923;28;20031;-59
2021/05/12 09:13:05;;;;;;;8.02;7.22;;;;;;;;;;4989519;28;20109;-59
2021/05/12 09:15:32;;;;;;;6.40;5.80;;;;;;;;;;4989236;28;20100;-58
2021/05/12 09:18:02;;;;;;;5.97;5.22;;;;;;;;;;4991830;28;20038;-58
2021/05/12 09:20:33;;;;;;;6.93;6.22;;;;;;;;;;4989580;28;20101;-59
2021/05/12 09:22:59;;;;;;;6.57;5.57;;;;;;;;;;4986466;28;20073;-59
2021/05/12 09:25:26;;;;;;;7.43;6.72;;;;;;;;;;4990085;28;20061;-59
2021/05/12 09:27:52;;;;;;;6.68;5.97;;;;;;;;;;4991741;28;20027;-60
2021/05/12 09:30:22;;;;;;;7.70;7.00;;;;;;;;;;4989310;28;20031;-58
2021/05/12 09:32:48;;;;;;;9.38;7.72;;;;;;;;;;4989843;28;20031;-59
2021/05/12 09:35:16;;;;;;;7.55;6.75;;;;;;;;;;4989241;28;20033;-59
2021/05/12 09:37:43;;;;;;;7.25;6.55;;;;;;;;;;4985840;28;20114;-59
2021/05/12 09:40:10;;;;;;;10.13;6.65;;;;;;;;;;4985856;28;20038;-57
2021/05/12 09:42:37;;;;;;;7.50;6.80;;;;;;;;;;4989575;28;20484;-59
2021/05/12 09:45:13;;;;;;;6.63;5.55;;;;;;;;;;4983013;28;20035;-59
2021/05/12 09:47:39;;;;;;;8.38;4.53;;;;;;;;;;4987116;28;20026;-59
2021/05/12 09:50:09;;;;;;;5.10;4.68;;;;;;;;;;4989770;28;20054;-58
2021/05/12 09:52:35;;;;;;;5.10;4.60;;;;;;;;;;4989120;28;20038;-57
2021/05/12 09:55:03;;;;;;;7.82;5.30;;;;;;;;;;4984177;28;20174;-59
2021/05/12 09:57:29;;;;;;;6.03;4.82;;;;;;;;;;4990174;28;20114;-60
2021/05/12 09:59:55;;;;;;;6.70;4.45;;;;;;;;;;4985527;28;20049;-58
2021/05/12 10:02:21;;;;;;;6.88;4.35;;;;;;;;;;4986485;28;20026;-59
2021/05/12 10:04:50;;;;;;;4.25;3.85;;;;;;;;;;4991376;28;20030;-59
2021/05/12 10:07:23;;;;;;;4.93;4.40;;;;;;;;;;4988173;28;20026;-58
2021/05/12 10:09:51;;;;;;;5.15;4.05;;;;;;;;;;4987220;28;20035;-58
2021/05/12 10:12:18;;;;;;;4.50;4.10;;;;;;;;;;4988632;28;20514;-59
2021/05/12 10:14:47;;;;;;;4.53;4.13;;;;;;;;;;4978581;28;20490;-59
2021/05/12 10:17:14;;;;;;;6.70;4.70;;;;;;;;;;4983299;28;20027;-59
2021/05/12 10:19:41;;;;;;;5.22;4.72;;;;;;;;;;4988984;28;20029;-59
2021/05/12 10:22:08;;;;;;;5.55;4.57;;;;;;;;;;4989554;28;20093;-59
2021/05/12 10:24:35;;;;;;;5.57;3.97;;;;;;;;;;4978263;28;20308;-58
2021/05/12 10:27:03;;;;;;;4.80;4.30;;;;;;;;;;4992170;28;20109;-58
2021/05/12 10:29:31;;;;;;;5.88;4.20;;;;;;;;;;4979805;28;20065;-57
2021/05/12 10:31:57;;;;;;;5.38;4.68;;;;;;;;;;4987411;28;20022;-58
2021/05/12 10:34:36;;;;;;;5.95;5.45;;;;;;;;;;4981002;28;20149;-58
2021/05/12 10:37:19;;;;;;;6.72;5.22;;;;;;;;;;5002195;28;20043;-59
2021/05/12 10:39:45;;;;;;;5.47;4.97;;;;;;;;;;4979796;28;20038;-59
2021/05/12 10:42:12;;;;;;;6.13;5.60;;;;;;;;;;4977742;28;20401;-58
2021/05/12 10:44:40;;;;;;;8.95;5.78;;;;;;;;;;4982487;28;20030;-58
2021/05/12 10:47:15;;;;;;;7.20;5.38;;;;;;;;;;4991990;28;20045;-59
2021/05/12 10:49:49;;;;;;;6.57;5.53;;;;;;;;;;4989113;28;20122;-59
2021/05/12 10:52:16;;;;;;;7.43;6.00;;;;;;;;;;4993525;28;20069;-58
2021/05/12 10:54:43;;;;;;;6.20;5.60;;;;;;;;;;4991612;28;20037;-58
2021/05/12 10:57:10;;;;;;;6.03;5.43;;;;;;;;;;4991796;28;20038;-58
2021/05/12 10:59:40;;;;;;;7.45;6.60;;;;;;;;;;4990412;28;20033;-58
2021/05/12 11:02:07;;;;;;;7.15;6.45;;;;;;;;;;4991042;28;20034;-58
2021/05/12 11:04:33;;;;;;;7.20;6.50;;;;;;;;;;4983679;28;20172;-58
2021/05/12 11:06:59;;;;;;;7.53;6.22;;;;;;;;;;4984469;28;20042;-59
2021/05/12 11:09:39;;;;;;;7.45;6.57;;;;;;;;;;4984082;28;20562;-59
2021/05/12 11:12:12;;;;;;;6.80;6.03;;;;;;;;;;4984914;28;20053;-58
2021/05/12 11:14:40;;;;;;;6.72;6.13;;;;;;;;;;4982627;28;20496;-59
2021/05/12 11:17:10;;;;;;;6.07;5.47;;;;;;;;;;4988312;28;20117;-59
2021/05/12 11:19:38;;;;;;;6.35;5.75;;;;;;;;;;4985968;28;20106;-58
2021/05/12 11:22:23;;;;;;;6.40;5.80;;;;;;;;;;4999060;28;20147;-58
2021/05/12 11:24:54;;;;;;;5.93;5.43;;;;;;;;;;4982494;28;20064;-59
2021/05/12 11:28:08;;;;;;;8.07;5.30;;;;;;;;;;4984037;28;20029;-59
2021/05/12 11:33:01;;;;;;;7.85;5.65;;;;;;;;;;4985358;28;20522;-58
2021/05/12 11:35:28;;;;;;;7.28;5.25;;;;;;;;;;4990658;28;20026;-60
2021/05/12 11:37:54;;;;;;;7.90;6.40;;;;;;;;;;4989157;28;20386;-59
2021/05/12 11:40:20;;;;;;;10.27;7.10;;;;;;;;;;4989346;28;20035;-58
2021/05/12 11:42:48;;;;;;;7.63;6.78;;;;;;;;;;4983727;28;20087;-59
2021/05/12 11:45:20;;;;;;;9.25;6.10;;;;;;;;;;4983192;28;20029;-58
2021/05/12 11:48:01;;;;;;;6.88;6.18;;;;;;;;;;4985102;28;20488;-59
2021/05/12 11:50:31;;;;;;;7.47;6.63;;;;;;;;;;4986977;28;20117;-58
2021/05/12 11:52:58;;;;;;;6.10;5.13;;;;;;;;;;4983442;28;20021;-58
2021/05/12 11:55:32;;;;;;;8.07;5.70;;;;;;;;;;4989598;28;20577;-59
2021/05/12 11:57:58;;;;;;;6.03;5.43;;;;;;;;;;4983004;28;20481;-58
2021/05/12 12:00:32;;;;;;;7.25;6.38;;;;;;;;;;4986823;28;20359;-59
2021/05/12 12:03:07;;;;;;;8.07;7.35;;;;;;;;;;4989501;28;20026;-58
2021/05/12 12:05:43;;;;;;;7.38;6.57;;;;;;;;;;4983869;28;20054;-58
2021/05/12 12:08:12;;;;;;;7.65;6.95;;;;;;;;;;5000714;28;20058;-57
2021/05/12 12:10:39;;;;;;;8.88;6.75;;;;;;;;;;4989541;28;20026;-59
2021/05/12 12:13:08;;;;;;;10.65;7.38;;;;;;;;;;4983386;28;20019;-59
2021/05/12 12:15:39;;;;;;;9.45;6.63;;;;;;;;;;4967759;28;20062;-59
2021/05/12 12:18:05;;;;;;;8.27;7.57;;;;;;;;;;4983661;28;20046;-58
2021/05/12 12:20:32;;;;;;;7.57;6.90;;;;;;;;;;4966466;28;20019;-58
2021/05/12 12:23:01;;;;;;;8.55;7.75;;;;;;;;;;4985705;28;20037;-58
2021/05/12 12:25:43;;;;;;;7.50;6.80;;;;;;;;;;4987093;28;20030;-58
2021/05/12 12:28:09;;;;;;;7.85;6.35;;;;;;;;;;5002186;28;20045;-59
2021/05/12 12:30:35;;;;;;;7.47;6.72;;;;;;;;;;4972875;28;20031;-59
2021/05/12 12:33:02;;;;;;;6.18;5.10;;;;;;;;;;4990052;28;20092;-58
2021/05/12 12:35:28;;;;;;;5.68;5.07;;;;;;;;;;4989200;28;20026;-59
2021/05/12 12:37:55;;;;;;;6.25;5.57;;;;;;;;;;4988580;28;20030;-59
2021/05/12 12:40:23;;;;;;;5.90;5.00;;;;;;;;;;4989267;28;20482;-59
2021/05/12 12:42:50;;;;;;;6.13;5.53;;;;;;;;;;4985811;28;20108;-59
2021/05/12 12:45:23;;;;;;;6.10;5.53;;;;;;;;;;4987473;28;20458;-58
2021/05/12 12:47:54;;;;;;;11.32;6.25;;;;;;;;;;4986785;28;20038;-58
2021/05/12 12:50:21;;;;;;;5.80;5.30;;;;;;;;;;4986730;28;20031;-59
2021/05/12 12:52:47;;;;;;;5.53;4.88;;;;;;;;;;4999478;28;20033;-59
2021/05/12 12:55:26;;;;;;;5.15;4.65;;;;;;;;;;4985337;28;20335;-58
2021/05/12 12:57:59;;;;;;;6.13;4.82;;;;;;;;;;4986448;28;20062;-59
2021/05/12 13:00:27;;;;;;;6.65;4.40;;;;;;;;;;4989800;28;20031;-58
2021/05/12 13:03:15;;;;;;;5.30;4.90;;;;;;;;;;4988346;28;20421;-58
2021/05/12 13:05:44;;;;;;;5.10;4.53;;;;;;;;;;4973613;28;20045;-59
2021/05/12 13:08:30;;;;;;;5.25;4.75;;;;;;;;;;4987878;28;20113;-58
2021/05/12 13:10:59;;;;;;;4.15;3.72;;;;;;;;;;4985674;28;20052;-58
2021/05/12 13:13:29;;;;;;;5.07;3.33;;;;;;;;;;4985115;28;20031;-58
2021/05/12 13:15:56;;;;;;;3.90;3.60;;;;;;;;;;4985941;28;20026;-59
2021/05/12 13:18:33;;;;;;;5.00;3.40;;;;;;;;;;4983792;28;20070;-59
2021/05/12 13:21:00;;;;;;;3.95;3.40;;;;;;;;;;4989794;28;20125;-59
2021/05/12 13:23:28;;;;;;;4.82;3.42;;;;;;;;;;4987852;28;20023;-58
2021/05/12 13:25:56;;;;;;;5.22;3.63;;;;;;;;;;4987606;28;20022;-57
2021/05/12 13:28:26;;;;;;;3.15;2.95;;;;;;;;;;4991484;28;20112;-59
2021/05/12 13:30:53;;;;;;;5.00;2.95;;;;;;;;;;4989029;28;20026;-59
2021/05/12 13:33:21;;;;;;;3.17;2.85;;;;;;;;;;4985548;28;20037;-60
2021/05/12 13:35:47;;;;;;;3.10;2.80;;;;;;;;;;4965051;28;20034;-58
2021/05/12 13:38:14;;;;;;;2.75;2.25;;;;;;;;;;4986581;28;20466;-59
2021/05/12 13:40:40;;;;;;;2.92;2.50;;;;;;;;;;4994859;28;20370;-58
2021/05/12 13:43:07;;;;;;;2.60;2.35;;;;;;;;;;4996092;28;20058;-59
2021/05/12 13:45:33;;;;;;;3.65;2.55;;;;;;;;;;4993425;28;20053;-58
2021/05/12 13:48:00;;;;;;;2.97;2.72;;;;;;;;;;4993576;28;20068;-59
2021/05/12 13:50:29;;;;;;;3.95;2.40;;;;;;;;;;4993929;28;20023;-58
2021/05/12 14:03:07;;;;;;;3.03;2.47;;;;;;;;;;5001689;28;20101;-60
2021/05/12 14:05:36;;;;;;;2.83;2.55;;;;;;;;;;4998665;28;20066;-58
2021/05/12 14:08:02;;;;;;;2.88;2.55;;;;;;;;;;4993418;28;20027;-59
2021/05/12 14:10:38;;;;;;;4.65;2.25;;;;;;;;;;4989730;28;20060;-59
2021/05/12 14:13:18;;;;;;;5.20;3.15;;;;;;;;;;4991664;28;20030;-58
2021/05/12 14:18:11;;;;;;;3.13;2.20;;;;;;;;;;4991607;28;20039;-58
2021/05/12 14:20:37;;;;;;;2.95;2.72;;;;;;;;;;4998624;28;20031;-58
2021/05/12 14:23:04;;;;;;;4.13;2.75;;;;;;;;;;4989349;28;20038;-58
2021/05/12 14:25:30;;;;;;;3.17;2.67;;;;;;;;;;4987381;28;20458;-58
2021/05/12 14:27:59;;;;;;;3.28;2.90;;;;;;;;;;5004998;28;20031;-58
2021/05/12 14:30:33;;;;;;;11.00;5.10;;;;;;;;;;4992126;28;20049;-59
2021/05/12 14:33:00;;;;;;;6.22;4.68;;;;;;;;;;4979930;28;20205;-59
2021/05/12 14:35:26;;;;;;;4.47;4.07;;;;;;;;;;4994535;28;20061;-58
2021/05/12 14:37:52;;;;;;;4.47;3.60;;;;;;;;;;4994431;28;20117;-58
2021/05/12 14:40:19;;;;;;;3.95;3.10;;;;;;;;;;4994417;28;20039;-57
2021/05/12 14:42:45;;;;;;;3.63;3.15;;;;;;;;;;4993843;28;20039;-58
2021/05/12 14:45:11;;;;;;;3.05;2.72;;;;;;;;;;4994437;28;20030;-59
2021/05/12 14:47:37;;;;;;;5.53;2.70;;;;;;;;;;4991927;28;20034;-59
2021/05/12 14:50:05;;;;;;;5.88;2.83;;;;;;;;;;4991941;28;20148;-58
2021/05/12 15:03:19;;;;;;;1.73;0.90;;;;;;;;;;4993437;28;20117;-58
2021/05/12 15:08:13;;;;;;;1.70;0.90;;;;;;;;;;4989734;28;20397;-58
2021/05/12 15:10:40;;;;;;;1.73;0.93;;;;;;;;;;4986583;28;20042;-59
2021/05/12 15:13:06;;;;;;;4.45;1.20;;;;;;;;;;4988797;28;20030;-58